Time;durP1;ratioP1;P1;durP2;ratioP2;P2;SDS_P1;SDS_P2;PMS_P1;PMS_P2;Temp;Humidity;BMP_temperature;BMP_pressure;BME280_temperature;BME280_humidity;BME280_pressure;Samples;Min_cycle;Max_cycle;Signal;HPM_P1;HPM_P2
2023/02/13 00:00:58;;;;;;;283.70;50.08;;;;;;;-0.82;100.00;98011.91;2106883;28;20040;-75
2023/02/13 00:01:59;;;;;;;215.82;46.47;;;;;;;-0.91;100.00;98000.63;2106987;28;20051;-75
2023/02/13 00:03:00;;;;;;;190.73;43.72;;;;;;;-0.85;100.00;98002.47;2106879;28;20391;-75
2023/02/13 00:04:01;;;;;;;219.73;47.10;;;;;;;-0.85;100.00;98005.03;2107168;28;20036;-74
2023/02/13 00:05:02;;;;;;;260.23;50.42;;;;;;;-0.88;100.00;97992.19;2106882;28;20059;-75
2023/02/13 00:06:03;;;;;;;192.45;44.88;;;;;;;-0.85;100.00;97996.50;2107046;28;20040;-75
2023/02/13 00:07:05;;;;;;;141.52;38.35;;;;;;;-0.84;100.00;97999.09;2106539;28;20051;-76
2023/02/13 00:08:06;;;;;;;159.73;39.90;;;;;;;-0.87;100.00;97993.91;2106853;28;20039;-76
2023/02/13 00:09:09;;;;;;;148.15;37.00;;;;;;;-0.85;100.00;97991.41;2106874;28;20032;-76
2023/02/13 00:10:10;;;;;;;200.05;42.38;;;;;;;-0.90;100.00;97996.38;2106278;28;20048;-76
2023/02/13 00:11:12;;;;;;;184.73;39.65;;;;;;;-0.89;100.00;97990.44;2106895;28;20039;-76
2023/02/13 00:12:13;;;;;;;174.02;40.65;;;;;;;-0.88;100.00;97992.19;2107105;28;20039;-76
2023/02/13 00:13:14;;;;;;;210.23;43.28;;;;;;;-0.85;100.00;97993.97;2106880;28;20044;-76
2023/02/13 00:14:15;;;;;;;231.88;47.17;;;;;;;-0.89;100.00;97991.28;2106723;28;20044;-76
2023/02/13 00:15:16;;;;;;;216.48;44.25;;;;;;;-1.02;100.00;97971.34;2106891;28;20364;-76
2023/02/13 00:16:17;;;;;;;276.70;51.50;;;;;;;-0.88;100.00;97997.28;2106841;28;20047;-76
2023/02/13 00:17:19;;;;;;;320.40;51.88;;;;;;;-0.87;100.00;97988.81;2106893;28;20051;-76
2023/02/13 00:18:20;;;;;;;131.30;34.85;;;;;;;-0.86;100.00;97993.06;2106674;28;20471;-76
2023/02/13 00:19:21;;;;;;;329.58;52.22;;;;;;;-0.85;100.00;97991.41;2089482;28;20048;-76
2023/02/13 00:20:22;;;;;;;188.05;40.78;;;;;;;-0.81;100.00;97994.06;2088725;28;20052;-76
2023/02/13 00:21:23;;;;;;;390.92;57.15;;;;;;;-0.80;100.00;97993.28;2106852;28;20040;-76
2023/02/13 00:22:24;;;;;;;196.27;42.80;;;;;;;-0.83;100.00;97988.06;2106981;28;20058;-76
2023/02/13 00:23:25;;;;;;;279.80;50.83;;;;;;;-0.80;100.00;97990.72;2106746;28;20043;-76
2023/02/13 00:24:26;;;;;;;316.65;49.63;;;;;;;-0.82;100.00;97997.47;2106607;28;20032;-76
2023/02/13 00:25:28;;;;;;;221.93;45.22;;;;;;;-0.82;100.00;97991.50;2106809;28;20032;-76
2023/02/13 00:26:29;;;;;;;222.80;42.92;;;;;;;-0.81;100.00;97996.63;2106730;28;20059;-76
2023/02/13 00:27:30;;;;;;;216.43;44.53;;;;;;;-0.81;100.00;97996.63;2106826;28;20032;-76
2023/02/13 00:28:31;;;;;;;317.75;49.88;;;;;;;-0.81;100.00;98000.88;2106813;28;20036;-76
2023/02/13 00:29:32;;;;;;;202.15;43.22;;;;;;;-0.82;100.00;97997.47;2106108;28;20055;-76
2023/02/13 00:30:33;;;;;;;317.77;53.60;;;;;;;-0.80;100.00;97998.38;2097571;28;20044;-76
2023/02/13 00:31:34;;;;;;;272.10;48.70;;;;;;;-0.81;100.00;97993.22;2097249;28;20051;-76
2023/02/13 00:32:35;;;;;;;202.65;40.42;;;;;;;-0.81;100.00;97994.06;2106750;28;20490;-76
2023/02/13 00:33:37;;;;;;;200.90;42.83;;;;;;;-0.79;100.00;97992.44;2097595;28;20085;-76
2023/02/13 00:34:38;;;;;;;204.55;42.22;;;;;;;-0.76;100.00;97994.22;2089752;28;20044;-76
2023/02/13 00:35:39;;;;;;;231.93;42.72;;;;;;;-0.82;100.00;97994.06;2097518;28;20051;-76
2023/02/13 00:36:40;;;;;;;248.38;46.97;;;;;;;-0.79;100.00;97997.53;2106906;28;20341;-76
2023/02/13 00:37:42;;;;;;;232.25;43.42;;;;;;;-0.76;100.00;98002.72;2107084;28;20035;-76
2023/02/13 00:38:43;;;;;;;260.80;46.45;;;;;;;-0.74;100.00;98002.78;2106555;28;20036;-76
2023/02/13 00:39:44;;;;;;;293.70;49.47;;;;;;;-0.73;100.00;98002.81;2097540;28;20056;-76
2023/02/13 00:40:45;;;;;;;228.60;44.80;;;;;;;-0.79;100.00;97987.34;2097545;28;20063;-76
2023/02/13 00:41:46;;;;;;;227.15;44.47;;;;;;;-0.74;100.00;98001.09;2106573;28;20411;-76
2023/02/13 00:42:47;;;;;;;189.25;40.97;;;;;;;-0.73;100.00;98005.38;2106693;28;20032;-76
2023/02/13 00:43:48;;;;;;;260.58;47.15;;;;;;;-0.73;100.00;98004.50;2106089;28;20059;-76
2023/02/13 00:44:49;;;;;;;213.13;41.58;;;;;;;-0.73;100.00;97999.41;2106571;28;20048;-76
2023/02/13 00:45:51;;;;;;;282.83;49.45;;;;;;;-0.70;100.00;98002.91;2106619;28;20040;-76
2023/02/13 00:46:52;;;;;;;239.85;47.30;;;;;;;-0.75;100.00;97999.38;2106637;28;20492;-76
2023/02/13 00:47:53;;;;;;;251.35;44.22;;;;;;;-0.73;100.00;98002.81;2106566;28;20043;-76
2023/02/13 00:48:55;;;;;;;213.90;42.95;;;;;;;-0.74;100.00;98003.66;2097644;28;20516;-76
2023/02/13 00:49:56;;;;;;;255.88;43.83;;;;;;;-0.76;100.00;98004.44;2097605;28;20036;-76
2023/02/13 00:50:57;;;;;;;193.90;38.80;;;;;;;-0.74;100.00;98002.78;2106514;28;20062;-76
2023/02/13 00:51:58;;;;;;;197.27;40.28;;;;;;;-0.73;100.00;98000.25;2107002;28;20047;-76
2023/02/13 00:52:59;;;;;;;300.92;49.47;;;;;;;-0.72;100.00;97999.47;2106750;28;20491;-76
2023/02/13 00:54:00;;;;;;;265.70;44.65;;;;;;;-0.74;100.00;97997.69;2097494;28;20040;-76
2023/02/13 00:55:01;;;;;;;374.25;55.85;;;;;;;-0.71;100.00;98006.28;2097678;28;20048;-76
2023/02/13 00:56:03;;;;;;;276.55;47.72;;;;;;;-0.71;100.00;97993.53;2097828;28;20044;-76
2023/02/13 00:57:04;;;;;;;230.55;42.53;;;;;;;-0.71;100.00;97996.06;2089408;28;20044;-76
2023/02/13 00:58:05;;;;;;;336.02;54.80;;;;;;;-0.71;100.00;97995.22;2097262;28;20052;-76
2023/02/13 00:59:06;;;;;;;222.90;43.30;;;;;;;-0.85;100.00;97974.41;2106389;28;20376;-76
2023/02/13 01:00:08;;;;;;;218.20;43.78;;;;;;;-0.79;100.00;97991.59;2106519;28;20040;-76
2023/02/13 01:01:09;;;;;;;214.18;41.78;;;;;;;-0.78;100.00;97996.72;2106594;28;20043;-76
2023/02/13 01:02:10;;;;;;;252.32;46.65;;;;;;;-0.80;100.00;97997.50;2106622;28;20047;-75
2023/02/13 01:03:12;;;;;;;222.00;40.85;;;;;;;-0.82;100.00;97994.91;2106626;28;20483;-74
2023/02/13 01:04:13;;;;;;;170.60;36.05;;;;;;;-0.82;100.00;97996.59;2106508;28;20044;-74
2023/02/13 01:05:14;;;;;;;263.92;46.10;;;;;;;-0.79;100.00;98000.09;2106518;28;20055;-74
2023/02/13 01:06:16;;;;;;;402.70;56.15;;;;;;;-0.81;100.00;97996.63;2106558;28;20490;-75
2023/02/13 01:07:17;;;;;;;196.73;38.95;;;;;;;-0.85;100.00;97987.16;2106787;28;20032;-73
2023/02/13 01:08:18;;;;;;;309.08;49.42;;;;;;;-0.99;100.00;97968.03;2105745;28;20073;-72
2023/02/13 01:09:20;;;;;;;193.18;39.35;;;;;;;-0.84;100.00;97999.09;2096692;28;20047;-73
2023/02/13 01:10:21;;;;;;;207.85;41.65;;;;;;;-0.83;100.00;97990.59;2097351;28;20047;-72
2023/02/13 01:11:22;;;;;;;254.43;42.97;;;;;;;-0.88;100.00;97999.84;2097685;28;20381;-73
2023/02/13 01:12:23;;;;;;;228.70;44.08;;;;;;;-0.86;100.00;97994.75;2097471;28;20126;-73
2023/02/13 01:13:25;;;;;;;232.68;42.72;;;;;;;-0.87;100.00;98000.69;2106461;28;20052;-73
2023/02/13 01:14:28;;;;;;;203.77;37.35;;;;;;;-0.85;100.00;97992.28;2096819;28;20059;-73
2023/02/13 01:15:29;;;;;;;245.95;43.95;;;;;;;-0.84;100.00;97999.09;2089414;28;20044;-74
2023/02/13 01:16:30;;;;;;;215.90;41.80;;;;;;;-0.88;100.00;97987.09;2097610;28;20036;-73
2023/02/13 01:17:31;;;;;;;266.23;46.85;;;;;;;-0.81;100.00;97998.31;2106730;28;20360;-73
2023/02/13 01:18:32;;;;;;;214.73;41.60;;;;;;;-0.87;100.00;97988.81;2106445;28;20040;-73
2023/02/13 01:19:35;;;;;;;223.73;43.15;;;;;;;-0.83;100.00;97995.72;2097362;28;20061;-73
2023/02/13 01:20:36;;;;;;;215.05;41.30;;;;;;;-0.82;100.00;97989.81;2097537;28;20375;-74
2023/02/13 01:21:37;;;;;;;188.20;37.75;;;;;;;-0.80;100.00;98000.03;2106515;28;20032;-73
2023/02/13 01:22:38;;;;;;;227.18;41.55;;;;;;;-0.86;100.00;98000.72;2097289;28;20056;-73
2023/02/13 01:23:39;;;;;;;202.60;41.10;;;;;;;-0.87;100.00;97993.03;2096942;28;20055;-74
2023/02/13 01:24:40;;;;;;;162.90;36.42;;;;;;;-0.81;100.00;98000.88;2106478;28;20036;-73
2023/02/13 01:25:41;;;;;;;233.80;41.78;;;;;;;-0.86;100.00;97993.06;2106593;28;20049;-73
2023/02/13 01:26:43;;;;;;;213.00;43.25;;;;;;;-1.00;100.00;97968.84;2088936;28;20048;-74
2023/02/13 01:27:44;;;;;;;197.52;40.60;;;;;;;-0.85;100.00;97984.63;2089381;28;20047;-73
2023/02/13 01:28:45;;;;;;;204.45;39.33;;;;;;;-0.92;100.00;97975.91;2089325;28;20484;-73
2023/02/13 01:29:46;;;;;;;212.18;40.38;;;;;;;-0.80;100.00;97992.38;2097266;28;20044;-73
2023/02/13 01:30:54;;;;;;;218.02;42.00;;;;;;;-1.00;100.00;97963.75;2089008;28;20468;-73
2023/02/13 01:31:56;;;;;;;196.65;42.17;;;;;;;-0.79;100.00;97992.44;2083070;28;20046;-73
2023/02/13 01:32:57;;;;;;;184.18;39.17;;;;;;;-0.81;100.00;97983.88;2096889;28;20048;-74
2023/02/13 01:33:58;;;;;;;188.57;41.38;;;;;;;-0.75;100.00;97999.38;2106706;28;20039;-73
2023/02/13 01:34:59;;;;;;;163.82;37.45;;;;;;;-0.85;100.00;97971.00;2097863;28;20048;-73
2023/02/13 01:36:10;;;;;;;255.60;47.20;;;;;;;-0.76;100.00;97994.22;2089153;28;20064;-73
2023/02/13 01:37:12;;;;;;;168.60;37.30;;;;;;;-0.73;100.00;97994.31;2097382;28;20044;-73
2023/02/13 01:38:13;;;;;;;247.82;44.95;;;;;;;-0.81;100.00;97988.13;2097396;28;20047;-73
2023/02/13 01:39:15;;;;;;;245.65;43.95;;;;;;;-0.75;100.00;97996.81;2106402;28;20468;-73
2023/02/13 01:40:17;;;;;;;206.32;40.40;;;;;;;-0.76;100.00;97996.78;2097156;28;20053;-74
2023/02/13 01:41:18;;;;;;;180.45;39.67;;;;;;;-0.80;100.00;97988.19;2097617;28;20028;-73
2023/02/13 01:42:27;;;;;;;272.63;47.65;;;;;;;-0.84;100.00;97986.34;2097373;28;20047;-73
2023/02/13 01:43:47;;;;;;;305.75;48.28;;;;;;;-0.88;100.00;97974.34;2098572;28;20388;-73
2023/02/13 01:44:59;;;;;;;244.48;43.85;;;;;;;-0.84;100.00;97991.44;2096550;28;20056;-73
2023/02/13 01:46:00;;;;;;;215.65;38.40;;;;;;;-0.80;100.00;97994.94;2098983;28;20036;-73
2023/02/13 01:47:01;;;;;;;263.70;44.45;;;;;;;-0.82;100.00;97994.06;2089258;28;20036;-73
2023/02/13 01:48:04;;;;;;;320.42;51.10;;;;;;;-0.80;100.00;97993.28;2089026;28;20382;-73
2023/02/13 01:49:12;;;;;;;422.08;55.63;;;;;;;-0.82;100.00;97992.34;2089141;28;20045;-73
2023/02/13 01:50:19;;;;;;;689.83;76.40;;;;;;;-0.79;100.00;97992.44;2091197;28;20047;-73
2023/02/13 01:51:23;;;;;;;427.42;57.88;;;;;;;-0.81;100.00;97990.66;2088714;28;20044;-73
2023/02/13 01:52:24;;;;;;;355.70;51.53;;;;;;;-0.78;100.00;97998.41;2081611;28;20060;-73
2023/02/13 01:53:31;;;;;;;442.67;59.47;;;;;;;-0.73;100.00;97994.31;2089408;28;20408;-73
2023/02/13 01:54:33;;;;;;;426.10;58.55;;;;;;;-0.73;100.00;97990.06;2074274;28;20045;-73
2023/02/13 01:55:41;;;;;;;405.15;57.25;;;;;;;-0.68;100.00;97991.06;2073973;28;20052;-73
2023/02/13 01:56:45;;;;;;;181.38;36.58;;;;;;;-0.71;100.00;97990.97;2074490;28;20046;-73
2023/02/13 01:57:50;;;;;;;278.55;48.72;;;;;;;-0.77;100.00;97989.94;2073302;28;20065;-73
2023/02/13 01:58:53;;;;;;;243.38;43.08;;;;;;;-0.76;100.00;97987.44;2065916;28;20046;-73
2023/02/13 01:59:58;;;;;;;183.02;38.42;;;;;;;-0.75;100.00;97994.28;2057485;28;20059;-73
2023/02/13 02:01:01;;;;;;;224.48;43.70;;;;;;;-0.81;100.00;97988.13;2074276;28;20049;-73
2023/02/13 02:02:04;;;;;;;290.58;48.80;;;;;;;-0.80;100.00;97980.53;2073859;28;20045;-77
2023/02/13 02:03:11;;;;;;;182.32;39.65;;;;;;;-0.73;100.00;97991.75;2089314;28;20044;-77
2023/02/13 02:04:21;;;;;;;177.43;38.95;;;;;;;-0.73;100.00;97996.84;2097347;28;20048;-78
2023/02/13 02:05:23;;;;;;;133.85;34.15;;;;;;;-0.73;100.00;97987.50;2082077;28;20037;-77
2023/02/13 02:06:26;;;;;;;150.68;37.50;;;;;;;-0.77;100.00;97995.91;2080160;28;20052;-77
2023/02/13 02:07:28;;;;;;;171.75;38.28;;;;;;;-0.85;100.00;97978.66;2081464;28;20052;-77
2023/02/13 02:08:37;;;;;;;164.77;38.85;;;;;;;-0.77;100.00;97987.41;2080740;28;20045;-78
2023/02/13 02:09:40;;;;;;;119.30;34.22;;;;;;;-0.74;100.00;97993.44;2073937;28;20536;-78
2023/02/13 02:10:41;;;;;;;209.48;40.72;;;;;;;-0.77;100.00;97985.72;2081246;28;20045;-77
2023/02/13 02:12:08;;;;;;;156.25;37.08;;;;;;;-0.82;100.00;97971.09;2097352;28;20036;-78
2023/02/13 02:13:12;;;;;;;149.48;35.15;;;;;;;-0.77;100.00;97982.28;2089065;28;20052;-78
2023/02/13 02:14:14;;;;;;;141.23;35.60;;;;;;;-0.72;100.00;97983.28;2084193;28;20040;-77
2023/02/13 02:15:16;;;;;;;190.13;40.90;;;;;;;-0.80;100.00;97974.53;2088981;28;20052;-77
2023/02/13 02:16:17;;;;;;;181.18;39.13;;;;;;;-0.74;100.00;97984.94;2088896;28;20041;-77
2023/02/13 02:17:19;;;;;;;175.50;40.03;;;;;;;-0.76;100.00;97986.56;2089048;28;20048;-77
2023/02/13 02:18:22;;;;;;;188.88;39.03;;;;;;;-0.79;100.00;97978.81;2089138;28;20108;-78
2023/02/13 02:19:31;;;;;;;253.80;46.97;;;;;;;-0.79;100.00;97987.34;2081049;28;20054;-77
2023/02/13 02:20:50;;;;;;;182.35;40.78;;;;;;;-0.75;100.00;97981.53;2088863;28;20056;-77
2023/02/13 02:22:01;;;;;;;;;;;;;;;-0.75;100.00;97984.06;2096274;28;20028;-77
2023/02/13 02:23:47;;;;;;;229.20;39.85;;;;;;;-0.78;100.00;97990.75;2098991;28;19912;-78
2023/02/13 02:25:01;;;;;;;360.52;49.30;;;;;;;-0.82;100.00;97986.41;2090366;28;20045;-77
2023/02/13 02:26:06;;;;;;;393.63;55.42;;;;;;;-0.79;100.00;97989.03;2077553;28;20421;-78
2023/02/13 02:27:40;;;;;;;292.38;48.40;;;;;;;-0.82;100.00;97989.81;2074960;28;20053;-78
2023/02/13 02:29:01;;;;;;;289.33;47.15;;;;;;;-0.76;100.00;97984.88;2091618;28;20032;-78
2023/02/13 02:30:14;;;;;;;334.88;50.10;;;;;;;-0.84;100.00;97981.22;2093435;28;20425;-78
2023/02/13 02:31:40;;;;;;;310.17;49.70;;;;;;;-0.90;100.00;97961.53;2083794;28;20052;-78
2023/02/13 02:33:02;;;;;;;354.27;53.17;;;;;;;-0.75;100.00;97986.63;2093807;28;20103;-78
2023/02/13 02:34:32;;;;;;;286.05;45.60;;;;;;;-0.76;100.00;97989.97;2085641;28;20060;-77
2023/02/13 02:35:40;;;;;;;252.50;44.10;;;;;;;-0.76;100.00;97989.13;2086371;28;20037;-77
2023/02/13 02:37:03;;;;;;;336.27;52.37;;;;;;;-0.75;100.00;97983.19;2075686;28;20049;-77
2023/02/13 02:38:27;;;;;;;253.40;44.80;;;;;;;-0.75;100.00;97994.28;2088364;28;20757;-77
2023/02/13 02:39:35;;;;;;;204.73;39.97;;;;;;;-0.90;100.00;97973.41;2093435;28;20037;-78
2023/02/13 02:40:43;;;;;;;274.98;45.17;;;;;;;-0.76;100.00;97989.97;2082892;28;20041;-77
2023/02/13 02:42:03;;;;;;;243.65;44.15;;;;;;;-0.77;100.00;97979.75;2083135;28;20046;-78
2023/02/13 02:43:20;;;;;;;243.38;44.25;;;;;;;-0.72;100.00;97989.25;2078871;28;20508;-78
2023/02/13 02:44:38;;;;;;;183.25;38.08;;;;;;;-0.78;100.00;97989.06;2084653;28;20049;-77
2023/02/13 02:45:49;;;;;;;239.57;41.65;;;;;;;-0.76;100.00;97981.47;2086794;28;20049;-78
2023/02/13 02:50:11;;;;;;;220.95;41.63;;;;;;;-0.85;100.00;97992.28;2085799;28;20558;-72
2023/02/13 02:51:17;;;;;;;221.38;41.15;;;;;;;-0.86;100.00;97990.53;2081349;28;20462;-72
2023/02/13 02:52:19;;;;;;;319.25;50.60;;;;;;;-0.83;100.00;97987.19;2084008;28;20045;-72
2023/02/13 02:53:42;;;;;;;184.02;38.35;;;;;;;-0.79;100.00;97983.94;2074129;28;20044;-72
2023/02/13 02:55:08;;;;;;;151.23;35.70;;;;;;;-0.83;100.00;97980.41;2080057;28;20060;-73
2023/02/13 02:56:24;;;;;;;205.90;40.30;;;;;;;-0.83;100.00;97977.84;2075477;28;20037;-72
2023/02/13 03:06:09;;;;;;;201.10;40.45;;;;;;;-0.87;100.00;97967.53;2075375;28;20477;-72
2023/02/13 03:06:10;;;;;;;185.27;38.70;;;;;;;-0.78;100.00;97983.09;2085236;28;20044;-72
2023/02/13 03:07:14;;;;;;;182.73;39.53;;;;;;;-0.76;100.00;97989.13;2088825;28;20044;-72
2023/02/13 03:13:17;;;;;;;239.38;45.75;;;;;;;-0.80;100.00;97979.63;2090703;28;20405;-72
2023/02/13 03:13:43;;;;;;;223.43;42.22;;;;;;;-0.91;100.00;97986.97;2078741;28;20052;-77
2023/02/13 03:14:44;;;;;;;233.43;46.70;;;;;;;-0.83;100.00;97987.19;2079452;28;20041;-77
2023/02/13 03:23:30;;;;;;;237.50;42.97;;;;;;;-0.95;100.00;97978.38;2089756;28;20512;-77
2023/02/13 03:24:46;;;;;;;294.05;47.70;;;;;;;-0.83;100.00;97995.72;2090298;28;20416;-77
2023/02/13 03:25:58;;;;;;;171.75;37.95;;;;;;;-0.83;100.00;97995.72;2092316;28;20044;-77
2023/02/13 03:30:54;;;;;;;199.02;39.47;;;;;;;-0.81;100.00;98003.41;2090218;28;20048;-77
2023/02/13 03:32:08;;;;;;;184.98;38.17;;;;;;;-0.86;100.00;97990.53;2103645;28;20040;-78
2023/02/13 03:33:26;;;;;;;129.48;34.72;;;;;;;-0.84;100.00;97995.69;2097543;28;20052;-77
2023/02/13 03:37:53;;;;;;;150.45;38.92;;;;;;;-0.84;100.00;98004.19;2100759;28;20040;-77
2023/02/13 03:37:53;;;;;;;122.53;32.58;;;;;;;-0.80;100.00;98002.59;2098098;28;20059;-78
2023/02/13 03:39:26;;;;;;;154.85;37.65;;;;;;;-0.85;100.00;97999.94;2101986;28;20471;-77
2023/02/13 03:40:36;;;;;;;185.95;39.45;;;;;;;-0.90;100.00;97998.91;2098169;28;20048;-77
2023/02/13 03:41:44;;;;;;;360.10;52.17;;;;;;;-0.82;100.00;98005.13;2085395;28;20207;-77
2023/02/13 03:42:52;;;;;;;419.23;57.45;;;;;;;-0.78;100.00;98003.50;2075664;28;20033;-77
2023/02/13 03:44:21;;;;;;;161.65;38.97;;;;;;;-0.76;100.00;98005.28;2092789;28;20048;-77
2023/02/13 03:46:47;;;;;;;188.82;38.17;;;;;;;-0.85;100.00;98002.47;2098157;28;19912;-77
2023/02/13 03:47:52;;;;;;;159.80;35.15;;;;;;;-0.87;100.00;98010.91;2089734;28;20040;-78
2023/02/13 03:50:13;;;;;;;133.90;35.13;;;;;;;-0.79;100.00;98009.44;2083488;28;20061;-77
2023/02/13 03:51:20;;;;;;;157.40;36.47;;;;;;;-0.88;100.00;97994.75;2086765;28;20038;-77
2023/02/13 03:52:23;;;;;;;154.60;39.63;;;;;;;-0.95;100.00;97998.78;2090680;28;20397;-77
2023/02/13 03:53:25;;;;;;;139.25;35.30;;;;;;;-0.92;100.00;97996.31;2090745;28;20033;-77
2023/02/13 04:00:11;;;;;;;203.82;41.42;;;;;;;-0.96;100.00;98004.72;2095316;28;20044;-77
2023/02/13 04:01:16;;;;;;;156.20;36.45;;;;;;;-0.90;100.00;98011.69;2092750;28;20432;-77
2023/02/13 04:02:19;;;;;;;141.95;36.15;;;;;;;-0.94;100.00;97997.09;2098664;28;20035;-77
2023/02/13 04:03:58;;;;;;;152.48;37.97;;;;;;;-0.82;100.00;98012.75;2097907;28;20033;-77
2023/02/13 04:05:03;;;;;;;;;;;;;;;-0.85;100.00;98015.22;2095416;28;20056;-77
2023/02/13 04:06:09;;;;;;;124.32;32.33;;;;;;;-0.93;100.00;98009.91;2098573;28;19935;-77
2023/02/13 04:07:28;;;;;;;201.88;38.97;;;;;;;-0.95;100.00;98011.53;2098075;28;20349;-77
2023/02/13 04:08:29;;;;;;;163.93;37.30;;;;;;;-0.96;100.00;98014.91;2083933;28;20060;-77
2023/02/13 04:09:30;;;;;;;131.98;34.97;;;;;;;-0.96;100.00;98003.84;2094367;28;20373;-77
2023/02/13 04:10:32;;;;;;;131.85;34.88;;;;;;;-0.87;100.00;98018.56;2097848;28;20037;-77
2023/02/13 04:11:37;;;;;;;145.73;35.28;;;;;;;-0.92;100.00;98014.16;2089729;28;20040;-77
2023/02/13 04:12:48;;;;;;;198.20;39.53;;;;;;;-0.88;100.00;98017.69;2090282;28;20045;-77
2023/02/13 04:14:00;;;;;;;189.65;40.88;;;;;;;-0.97;100.00;98022.50;2090878;28;20044;-77
2023/02/13 04:15:34;;;;;;;170.70;37.60;;;;;;;-1.00;100.00;98013.06;2091314;28;20047;-77
2023/02/13 04:16:38;;;;;;;133.65;32.28;;;;;;;-0.99;100.00;98008.84;2102038;28;20040;-78
2023/02/13 04:17:51;;;;;;;160.88;36.58;;;;;;;-0.90;100.00;98021.88;2089063;28;20048;-77
2023/02/13 04:18:52;;;;;;;156.48;37.58;;;;;;;-0.86;100.00;98021.13;2084546;28;20512;-77
2023/02/13 04:19:53;;;;;;;226.70;41.90;;;;;;;-0.94;100.00;98012.38;2097741;28;20053;-78
2023/02/13 04:20:54;;;;;;;221.30;44.50;;;;;;;-0.94;100.00;98013.25;2098368;28;20040;-78
2023/02/13 04:21:56;;;;;;;197.35;39.42;;;;;;;-1.05;100.00;98011.22;2098522;28;20040;-78
2023/02/13 04:23:02;;;;;;;185.88;39.15;;;;;;;-0.92;100.00;98019.28;2098299;28;20484;-77
2023/02/13 04:24:03;;;;;;;212.13;41.35;;;;;;;-0.87;100.00;98019.41;2097953;28;20032;-77
2023/02/13 04:25:05;;;;;;;190.18;42.67;;;;;;;-0.92;100.00;98009.06;2097826;28;20051;-77
2023/02/13 04:26:07;;;;;;;184.73;41.38;;;;;;;-0.89;100.00;98013.41;2097552;28;20500;-77
2023/02/13 04:27:11;;;;;;;214.27;41.58;;;;;;;-0.94;100.00;98002.19;2081692;28;20045;-77
2023/02/13 04:28:12;;;;;;;221.40;44.67;;;;;;;-0.84;100.00;98019.50;2073872;28;20042;-77
2023/02/13 04:29:13;;;;;;;290.42;47.95;;;;;;;-0.81;100.00;98023.84;2089721;28;20056;-77
2023/02/13 04:30:14;;;;;;;336.85;49.72;;;;;;;-0.84;100.00;98022.06;2098470;28;20050;-77
2023/02/13 04:31:16;;;;;;;349.58;50.72;;;;;;;-0.85;100.00;98017.78;2098344;28;20126;-77
2023/02/13 04:32:17;;;;;;;296.83;50.17;;;;;;;-0.89;100.00;98021.03;2098602;28;20036;-73
2023/02/13 04:33:18;;;;;;;284.52;45.80;;;;;;;-0.85;100.00;98016.91;2098336;28;20040;-73
2023/02/13 04:34:19;;;;;;;185.98;40.92;;;;;;;-0.89;100.00;98018.50;2098558;28;20024;-73
2023/02/13 04:35:20;;;;;;;189.15;38.42;;;;;;;-0.89;100.00;98026.16;2098420;28;20044;-73
2023/02/13 04:36:21;;;;;;;125.72;30.67;;;;;;;-0.94;100.00;98017.50;2097773;28;20036;-73
2023/02/13 04:37:23;;;;;;;133.27;32.92;;;;;;;-1.02;100.00;98021.50;2097862;28;20476;-75
2023/02/13 04:38:24;;;;;;;138.10;36.85;;;;;;;-0.96;100.00;98024.25;2098310;28;20029;-75
2023/02/13 04:39:25;;;;;;;136.60;34.65;;;;;;;-0.89;100.00;98031.25;2098319;28;20080;-75
2023/02/13 04:40:26;;;;;;;114.22;31.02;;;;;;;-0.95;100.00;98029.38;2098392;28;20465;-75
2023/02/13 04:41:27;;;;;;;125.47;33.90;;;;;;;-0.97;100.00;98025.91;2097830;28;20047;-75
2023/02/13 04:42:28;;;;;;;108.03;31.70;;;;;;;-0.99;100.00;98029.22;2097660;28;20036;-75
2023/02/13 04:43:29;;;;;;;104.40;31.50;;;;;;;-1.04;100.00;98025.69;2097628;28;20126;-75
2023/02/13 04:44:30;;;;;;;102.63;29.95;;;;;;;-1.04;100.00;98030.78;2098019;28;20505;-75
2023/02/13 04:45:32;;;;;;;98.95;28.50;;;;;;;-1.04;100.00;98026.56;2097694;28;20031;-75
2023/02/13 04:46:33;;;;;;;105.85;31.25;;;;;;;-1.00;100.00;98028.38;2097587;28;20044;-75
2023/02/13 04:47:34;;;;;;;115.93;34.20;;;;;;;-0.97;100.00;98038.66;2098336;28;20041;-75
2023/02/13 04:48:35;;;;;;;109.78;30.55;;;;;;;-1.05;100.00;98031.59;2097594;28;20044;-75
2023/02/13 04:49:36;;;;;;;104.18;30.20;;;;;;;-1.00;100.00;98033.47;2097472;28;20131;-75
2023/02/13 04:50:37;;;;;;;110.88;32.58;;;;;;;-0.98;100.00;98036.94;2097845;28;20419;-75
2023/02/13 04:51:38;;;;;;;107.00;32.58;;;;;;;-0.99;100.00;98035.22;2089598;28;20132;-75
2023/02/13 04:52:39;;;;;;;115.75;31.33;;;;;;;-1.03;100.00;98025.75;2097596;28;20055;-75
2023/02/13 04:53:40;;;;;;;107.38;32.05;;;;;;;-0.97;100.00;98035.25;2098390;28;20040;-75
2023/02/13 04:54:42;;;;;;;124.50;34.17;;;;;;;-0.98;100.00;98031.84;2098378;28;20032;-75
2023/02/13 04:55:43;;;;;;;114.47;32.25;;;;;;;-1.04;100.00;98028.22;2098279;28;20043;-75
2023/02/13 04:56:44;;;;;;;103.40;29.77;;;;;;;-1.01;100.00;98031.75;2099431;28;20040;-75
2023/02/13 04:57:45;;;;;;;107.63;30.38;;;;;;;-0.95;100.00;98033.63;2099402;28;20037;-76
2023/02/13 04:58:46;;;;;;;98.20;29.95;;;;;;;-0.91;100.00;98035.44;2099176;28;20448;-75
2023/02/13 04:59:47;;;;;;;111.75;32.33;;;;;;;-0.94;100.00;98028.56;2098412;28;20043;-75
2023/02/13 05:00:48;;;;;;;104.68;30.77;;;;;;;-0.98;100.00;98028.44;2098174;28;20045;-75
2023/02/13 05:01:49;;;;;;;93.40;30.52;;;;;;;-0.94;100.00;98031.09;2098231;28;20547;-75
2023/02/13 05:02:51;;;;;;;89.68;25.45;;;;;;;-0.95;100.00;98024.28;2097504;28;20043;-75
2023/02/13 05:03:52;;;;;;;93.38;29.05;;;;;;;-0.98;100.00;98025.88;2097785;28;20377;-75
2023/02/13 05:04:53;;;;;;;95.22;29.45;;;;;;;-1.00;100.00;98025.81;2098142;28;20032;-75
2023/02/13 05:05:54;;;;;;;100.15;29.13;;;;;;;-0.98;100.00;98015.69;2098165;28;20044;-75
2023/02/13 05:06:55;;;;;;;83.07;27.10;;;;;;;-0.94;100.00;98026.00;2098052;28;20426;-75
2023/02/13 05:07:56;;;;;;;99.85;29.25;;;;;;;-0.96;100.00;98029.34;2098151;28;20036;-75
2023/02/13 05:08:57;;;;;;;89.13;28.27;;;;;;;-0.96;100.00;98030.22;2098246;28;20041;-75
2023/02/13 05:09:58;;;;;;;102.68;31.25;;;;;;;-0.99;100.00;98022.47;2098618;28;20036;-75
2023/02/13 05:10:59;;;;;;;91.80;30.35;;;;;;;-0.96;100.00;98029.34;2098132;28;20479;-75
2023/02/13 05:12:00;;;;;;;90.75;29.05;;;;;;;-0.94;100.00;98025.13;2097567;28;20041;-75
2023/02/13 05:13:02;;;;;;;94.22;29.63;;;;;;;-0.94;100.00;98023.44;2097632;28;20037;-75
2023/02/13 05:14:03;;;;;;;102.93;30.70;;;;;;;-0.89;100.00;98023.59;2098197;28;20048;-75
2023/02/13 05:15:05;;;;;;;89.85;29.58;;;;;;;-0.85;100.00;98025.44;2098290;28;20479;-75
2023/02/13 05:16:06;;;;;;;110.78;30.70;;;;;;;-0.84;100.00;98026.28;2098236;28;20048;-75
2023/02/13 05:17:07;;;;;;;123.72;32.72;;;;;;;-0.86;100.00;98039.00;2098189;28;20373;-75
2023/02/13 05:18:08;;;;;;;105.07;30.80;;;;;;;-0.85;100.00;98025.44;2098099;28;20044;-75
2023/02/13 05:19:09;;;;;;;106.93;32.05;;;;;;;-0.85;100.00;98029.69;2099046;28;20040;-75
2023/02/13 05:20:11;;;;;;;115.97;32.90;;;;;;;-0.92;100.00;98021.81;2106589;28;20047;-75
2023/02/13 05:23:51;;;;;;;110.88;31.00;;;;;;;-0.85;100.00;98022.88;2106587;28;20047;-75
2023/02/13 05:24:52;;;;;;;99.43;30.80;;;;;;;-0.80;100.00;98023.88;2106757;28;20048;-75
2023/02/13 05:25:53;;;;;;;99.93;28.70;;;;;;;-0.79;100.00;98027.31;2106517;28;20336;-75
2023/02/13 05:26:54;;;;;;;104.10;31.67;;;;;;;-0.80;100.00;98026.44;2106516;28;20032;-75
2023/02/13 05:27:55;;;;;;;91.60;28.90;;;;;;;-0.77;100.00;98030.78;2106560;28;20036;-75
2023/02/13 05:30:16;;;;;;;88.47;26.20;;;;;;;-0.86;100.00;98026.25;2106422;28;20403;-75
2023/02/13 05:31:17;;;;;;;103.38;30.63;;;;;;;-0.91;100.00;98020.13;2106467;28;20051;-75
2023/02/13 05:32:18;;;;;;;94.95;28.27;;;;;;;-0.85;100.00;98028.00;2106386;28;20036;-75